x

Columbia River Bar - 20nm West Of Columbia River Mouth (46029) Wave Buoy

7:50 - Thu 25th May 2017 All times are PDT. -7 hours from GMT.

  • Sig Wave height 7.9ft
  • Swell Direction
  • Peak Period 11s
  • Average Period 8s
  • Wind
    13mph, 18mph gusts
  • Sea Temp 55°f
  • Ar Temp 54°f
  • Sea Pressure 1011.8mb
  • Columbia River Bar - 20nm West Of Columbia River Mouth
  • Columbia River Bar - 20nm West Of Columbia River Mouth

More Historic Weather Station data

Upgrade to MSW Pro to gain access to the past 30 days of data for over 8000 Wavebouys and Weather Stations around the globe.

Join Pro

Comparision Forecast

View Surf forecast
   
Qui 05/25 7:50 8ft 11s 8s 13 18 mph 1011.8mb 55f 54f
6:50 9ft 10s 8s 16 18 mph 1011.8mb 54f 54f
5:50 8.5ft 10s 8s 16 20 mph 1011.7mb 54f 54f
4:50 8ft 11s 8s 16 20 mph 1011.8mb 55f 54f
3:50 9ft 11s 8s 13 18 mph 1012.4mb 54f 54f
2:50 10ft 11s 8s 13 16 mph 1012.7mb 54f 54f
1:50 10.5ft 11s 8s 11 13 mph 1012.8mb 55f 53f
12:50 11ft 11s 8s 9 13 mph 1013.2mb 55f 53f
11:50 10.5ft 11s 8s 9 11 mph 1013.3mb 54f 53f
10:50 11ft 11s 9s 7 11 mph 1013.5mb 54f 53f
9:50 12ft 10s 8s 7 9 mph 1013.8mb 53f 53f
8:50 11ft 11s 8s 7 9 mph 1013.9mb 53f 53f
7:50 10.5ft 10s 8s 4 7 mph 1013.9mb 53f 53f
6:50 12ft 11s 8s 4 7 mph 1013.9mb 53f 53f
5:50 11ft 11s 8s 4 7 mph 1013.8mb 53f 53f
4:50 10.5ft 10s 8s 7 9 mph 1013.8mb 53f 53f
3:50 10ft 10s 8s 9 13 mph 1013.8mb 54f 53f
2:50 10.5ft 11s 8s 11 13 mph 1013.7mb 53f 53f
1:50 10ft 10s 8s 9 11 mph 1014mb 53f 53f
12:50 10.5ft 10s 8s 9 11 mph 1014.6mb 53f 53f
Qua 05/24 11:50 12ft 9s 8s 13 16 mph 1014.8mb 54f 53f
10:50 10ft 10s 8s 13 18 mph 1015.3mb 54f 53f
9:50 10ft 10s 8s 18 20 mph 1015.2mb 54f 53f
8:50 9ft 10s 7s 18 20 mph 1015.5mb 54f 53f
7:50 9ft 10s 7s 18 22 mph 1015.7mb 54f 53f
6:50 8ft 9s 7s 20 22 mph 1016.1mb 54f 53f
5:50 8.5ft 9s 7s 18 20 mph 1016.9mb 54f 53f
4:50 8.5ft 9s 6s 20 25 mph 1017.3mb 54f 53f
3:50 8ft 9s 6s 20 22 mph 1017.9mb 54f 54f
2:50 9ft 8s 6s 18 22 mph 1018.5mb 54f 53f
1:50 9ft 8s 6s 20 25 mph 1018.9mb 54f 53f
12:50 8.5ft 8s 7s 20 27 mph 1019.3mb 54f 53f
11:50 9.5ft 8s 7s 16 18 mph 1019.7mb 54f 53f
10:50 9.5ft 9s 7s 13 16 mph 1020.2mb 54f 53f
9:50 9.5ft 8s 7s 16 20 mph 1020.5mb 54f 53f
8:50 9.5ft 8s 7s 16 20 mph 1020.6mb 53f 53f
7:50 9.5ft 8s 7s 16 22 mph 1020.6mb 54f 53f
6:50 9.5ft 8s 7s 20 27 mph 1020.6mb 54f 53f
5:50 9ft 8s 7s 20 25 mph 1020.7mb 54f 53f
4:50 9ft 8s 6s 20 27 mph 1020.8mb 54f 52f
3:50 9ft 8s 6s 25 29 mph 1020.9mb 54f 52f
2:50 9ft 8s 7s 22 27 mph 1021.3mb 55f 53f
1:50 9.5ft 8s 7s 22 27 mph 1021.5mb 55f 52f
12:50 9ft 8s 6s 22 27 mph 1021.8mb 55f 53f
Ter 05/23 11:50 9ft 8s 6s 22 27 mph 1021.7mb 55f 53f
10:50 9ft 12s 7s 27 31 mph 1021.7mb 55f 53f
9:50 8.5ft 12s 6s 25 29 mph 1021.3mb 55f 53f
8:50 8ft 7s 6s 25 29 mph 1020.8mb 55f 54f
7:50 8.5ft 6s 6s 25 31 mph 1020.9mb 55f 54f
6:50 8ft 12s 6s 25 31 mph 1020.9mb 55f 55f
5:50 7ft 13s 6s 22 27 mph 1020.9mb 55f 55f
4:50 7ft 12s 6s 22 29 mph 1021mb 56f 55f
3:50 6ft 13s 6s 22 25 mph 1021.3mb 56f 55f
2:50 7ft 12s 6s 20 22 mph 1021.2mb 56f 55f
1:50 7ft 13s 6s 18 22 mph 1021mb 56f 54f
12:50 7ft 11s 6s 18 22 mph 1020.7mb 56f 54f
11:50 7ft 11s 6s 20 25 mph 1020.3mb 55f 54f
10:50 7ft 11s 6s 18 20 mph 1019.9mb 55f 54f
9:50 7.5ft 11s 7s 18 20 mph 1019.6mb 55f 54f
8:50 7ft 12s 6s 18 22 mph 1019.3mb 55f 55f
7:50 8ft 15s 6s 20 22 mph 1019.2mb 55f 55f
6:50 7.5ft 6s 6s 25 29 mph 1018.9mb 55f 55f
5:50 7ft 10s 6s 25 29 mph 1018.4mb 55f 55f
4:50 7ft 6s 6s 22 27 mph 1018.2mb 56f 56f
3:50 7ft 10s 6s 22 27 mph 1018mb 56f 56f
2:50 6.5ft 10s 6s 22 27 mph 1017.9mb 56f 57f
1:50 6ft 11s 6s 20 25 mph 1018mb 56f 57f
12:50 6ft 9s 6s 20 25 mph 1018mb 57f 57f
Seg 05/22 11:50 6ft 10s 6s 18 22 mph 1018mb 57f 57f
10:50 6ft 10s 6s 16 18 mph 1017.7mb 57f 58f
9:50 6ft 10s 6s 18 22 mph 1017.7mb 57f 57f
8:50 6ft 11s 6s 20 22 mph 1017.7mb 56f 58f
7:50 6ft 9s 5s 20 22 mph 1017.8mb 56f 58f
6:50 6.5ft 10s 6s 22 27 mph 1017.9mb 56f 58f
5:50 5.5ft 10s 5s 22 25 mph 1018mb 57f 58f
4:50 5ft 9s 5s 25 29 mph 1018.3mb 58f 58f
3:50 5ft 11s 5s 22 25 mph 1018.4mb 58f 58f
2:50 5ft 10s 6s 22 27 mph 1018.6mb 58f 58f
1:50 4.5ft 10s 6s 22 25 mph 1018.7mb 58f 59f
12:50 4.5ft 10s 6s 13 16 mph 1019mb 57f 59f
11:50 5ft 11s 6s 16 18 mph 1019.2mb 57f 58f
10:50 5ft 10s 5s 18 22 mph 1019.6mb 57f 58f
9:50 5.5ft 10s 6s 20 25 mph 1019.9mb 56f 57f
8:50 5ft 10s 6s 20 25 mph 1020mb 55f 56f
7:50 5ft 11s 6s 18 22 mph 1019.8mb 55f 56f
6:50 5ft 10s 5s 18 22 mph 1019.9mb 55f 56f
5:50 5ft 10s 5s 18 20 mph 1019.5mb 55f 56f
4:50 5ft 6s 5s 18 20 mph 1019.8mb 56f 56f
3:50 5ft 5s 5s 20 22 mph 1020.2mb 56f 57f